This is the latest recevied weather packets stored in our database for station/object K4ZZR. If no packets are shown the sender has not sent any weather packets the latest 10 day(s).
| Time | Temp. | Humidity | Pressure | Rain* | Wind** | Luminosity | Snow |
|---|---|---|---|---|---|---|---|
| 1777898001 | 23.89° C | 85% | 1014.8 hPa | 0 mm | - | 121 W/m² | - |
| 1777897697 | 23.89° C | 85% | 1014.7 hPa | 0 mm | - | 96 W/m² | - |
| 1777897394 | 23.33° C | 84% | 1014.5 hPa | 0 mm | - | 83 W/m² | - |
| 1777897089 | 23.33° C | 85% | 1014.6 hPa | 0 mm | - | 37 W/m² | - |
| 1777896786 | 23.33° C | 86% | 1014.5 hPa | 0 mm | - | 25 W/m² | - |
| 1777896483 | 23.33° C | 86% | 1014.4 hPa | 0 mm | - | 34 W/m² | - |
| 1777895273 | 23.33° C | 86% | 1013.9 hPa | 0 mm | - | 24 W/m² | - |
| 1777894668 | 23.33° C | 87% | 1014.2 hPa | 0 mm | - | 14 W/m² | - |
| 1777894364 | 23.33° C | 87% | 1014.2 hPa | 0 mm | - | 11 W/m² | - |
| 1777894062 | 23.33° C | 86% | 1014 hPa | 0 mm | - | 10 W/m² | - |
| 1777893758 | 22.78° C | 88% | 1014.1 hPa | 0 mm | - | 6 W/m² | - |
| 1777893455 | 22.78° C | 88% | 1014.1 hPa | 0 mm | - | 6 W/m² | - |
| 1777893151 | 22.78° C | 90% | 1014 hPa | 0 mm | - | 6 W/m² | - |
| 1777892848 | 22.78° C | 89% | 1013.9 hPa | 0 mm | - | 5 W/m² | - |
| 1777892544 | 22.78° C | 89% | 1013.6 hPa | 0 mm | - | 8 W/m² | - |
| 1777892240 | 22.78° C | 90% | 1013.7 hPa | 0 mm | - | 9 W/m² | - |
| 1777890422 | 21.11° C | 99% | 1013.7 hPa | 0 mm | - | 0 W/m² | - |
| 1777890118 | 21.11° C | 99% | 1013.9 hPa | 0 mm | - | 0 W/m² | - |
| 1777889815 | 21.11° C | 99% | 1013.7 hPa | 0 mm | - | 0 W/m² | - |
| 1777889512 | 21.11° C | 99% | 1013.7 hPa | 0.51 mm | - | 0 W/m² | - |
| 1777889210 | 21.11° C | 99% | 1013.9 hPa | 7.11 mm | - | 0 W/m² | - |
| 1777888908 | 21.67° C | 99% | 1013.6 hPa | 16.76 mm | - | 0 W/m² | - |
| 1777888604 | 21.67° C | 98% | 1013.6 hPa | 8.38 mm | - | 0 W/m² | - |
| 1777888300 | 22.22° C | 96% | 1013.4 hPa | 0 mm | - | 0 W/m² | - |
| 1777887997 | 22.78° C | 95% | 1013.4 hPa | 0 mm | - | 0 W/m² | - |
* Rain latest hour (hover to see other rain measurements)
** Current wind speed in m/s (hover to see current wind gust speed)